Stowe, VT

11:22 AM EST on December 04, 2016 (GMT -0500)
West Hill Stowe | | Change Station

Elev 833 ft 44.49 °N, 72.68 °W | Updated 8 minutes ago

Overcast
Overcast
31.1 °F
Feels Like 31 °F
N
1.0
Wind Variable Wind from NW
Gusts 12.0 mph

Today
High -- | Low -- °F
--% Chance of Precip.
Yesterday
High -- | Low -- °F
Precip. -- in
Pressure 30.23 in
Visibility 10.0 miles
Clouds Overcast 3100 ft
Windchill 31 °F
Dew Point 24 °F
Humidity 75%
Rainfall 0.00 in
Snow Depth Not available.
7:10 AM 4:11 PM
Waxing Crescent, 23% visible
SPECI KMVL 041614Z AUTO 32008KT 10SM OVC031 M01/M07 A3023 RMK AO2 T10111072
Pressure 30.23 in
Visibility 10.0 miles
Clouds Overcast 3100 ft
Windchill 31 °F
Dew Point 24 °F
Humidity 75%
Rainfall 0.00 in
Snow Depth Not available.
7:10 AM 4:11 PM
Waxing Crescent, 23% visible
SPECI KMVL 041614Z AUTO 32008KT 10SM OVC031 M01/M07 A3023 RMK AO2 T10111072

10-Day Weather Forecast

Almanac

Astronomy

Dec. 04, 2016 Rise Set
Actual Time
Civil Twilight
Nautical Twilight
Astronomical Twilight
Moon
Length of Visible Light
Length of Day
Tomorrow will be .
, % of the Moon is Illuminated

Today's Extremes

State Highs State Lows

Community

WunderPhotos

Upload Photos

1,955,617 photos uploaded!

WunderBlog® & News

Nearby

Air Quality

  Air Quality AQ Index Pollutant
Not available.

Snow Depth

Station Depth Elevation

Earthquake Activity

City Distance Mag. Time & Date
Minimum magnitude displayed is 2.5.

Coastal Water Temperatures

Place Temperature

Stations

Nearby Weather Stations

Station Location Temp. Windchill Dew Point Humidity Wind Precip. Elev Updated Type
                   

Watches & Warnings

There are currently no watches in effect.